sensor_id;sensor_type;location;lat;lon;timestamp;P1;durP1;ratioP1;P2;durP2;ratioP2
72590;SDS011;60625;51.212;5.952;2023-05-29T00:04:42;7.60;;;3.20;;
72590;SDS011;60625;51.212;5.952;2023-05-29T00:09:43;7.70;;;3.30;;
72590;SDS011;60625;51.212;5.952;2023-05-29T00:14:43;11.30;;;4.00;;
72590;SDS011;60625;51.212;5.952;2023-05-29T00:19:44;8.80;;;3.90;;
72590;SDS011;60625;51.212;5.952;2023-05-29T00:24:45;9.60;;;3.60;;
72590;SDS011;60625;51.212;5.952;2023-05-29T00:29:46;8.70;;;4.10;;
72590;SDS011;60625;51.212;5.952;2023-05-29T00:34:46;10.00;;;4.00;;
72590;SDS011;60625;51.212;5.952;2023-05-29T00:39:48;12.10;;;3.90;;
72590;SDS011;60625;51.212;5.952;2023-05-29T00:44:48;13.40;;;4.40;;
72590;SDS011;60625;51.212;5.952;2023-05-29T00:49:50;12.20;;;4.40;;
72590;SDS011;60625;51.212;5.952;2023-05-29T00:54:52;10.90;;;4.20;;
72590;SDS011;60625;51.212;5.952;2023-05-29T00:59:53;10.80;;;4.30;;
72590;SDS011;60625;51.212;5.952;2023-05-29T01:04:56;12.30;;;4.90;;
72590;SDS011;60625;51.212;5.952;2023-05-29T01:09:57;7.30;;;3.70;;
72590;SDS011;60625;51.212;5.952;2023-05-29T01:15:21;12.90;;;4.60;;
72590;SDS011;60625;51.212;5.952;2023-05-29T01:31:57;10.30;;;3.70;;
72590;SDS011;60625;51.212;5.952;2023-05-29T01:36:58;11.50;;;4.00;;
72590;SDS011;60625;51.212;5.952;2023-05-29T01:41:59;11.00;;;4.50;;
72590;SDS011;60625;51.212;5.952;2023-05-29T01:47:02;10.30;;;4.20;;
72590;SDS011;60625;51.212;5.952;2023-05-29T01:52:03;11.70;;;3.70;;
72590;SDS011;60625;51.212;5.952;2023-05-29T01:57:04;15.00;;;4.10;;
72590;SDS011;60625;51.212;5.952;2023-05-29T02:02:09;10.20;;;3.90;;
72590;SDS011;60625;51.212;5.952;2023-05-29T02:07:10;10.80;;;3.70;;
72590;SDS011;60625;51.212;5.952;2023-05-29T02:12:12;12.00;;;3.10;;
72590;SDS011;60625;51.212;5.952;2023-05-29T02:17:13;14.00;;;3.60;;
72590;SDS011;60625;51.212;5.952;2023-05-29T02:22:17;13.50;;;3.40;;
72590;SDS011;60625;51.212;5.952;2023-05-29T02:27:18;12.10;;;2.90;;
72590;SDS011;60625;51.212;5.952;2023-05-29T02:32:18;11.60;;;3.30;;
72590;SDS011;60625;51.212;5.952;2023-05-29T02:37:19;12.50;;;3.90;;
72590;SDS011;60625;51.212;5.952;2023-05-29T02:42:19;14.60;;;2.80;;
72590;SDS011;60625;51.212;5.952;2023-05-29T02:47:20;18.00;;;3.30;;
72590;SDS011;60625;51.212;5.952;2023-05-29T02:52:21;16.30;;;3.10;;
72590;SDS011;60625;51.212;5.952;2023-05-29T02:57:23;13.40;;;2.70;;
72590;SDS011;60625;51.212;5.952;2023-05-29T03:02:23;8.30;;;2.80;;
72590;SDS011;60625;51.212;5.952;2023-05-29T03:07:25;13.50;;;2.50;;
72590;SDS011;60625;51.212;5.952;2023-05-29T03:12:25;20.10;;;3.00;;
72590;SDS011;60625;51.212;5.952;2023-05-29T03:17:28;11.20;;;2.30;;
72590;SDS011;60625;51.212;5.952;2023-05-29T03:22:29;12.50;;;2.60;;
72590;SDS011;60625;51.212;5.952;2023-05-29T03:27:30;16.90;;;2.90;;
72590;SDS011;60625;51.212;5.952;2023-05-29T03:32:37;12.70;;;2.40;;
72590;SDS011;60625;51.212;5.952;2023-05-29T03:37:37;14.80;;;2.90;;
72590;SDS011;60625;51.212;5.952;2023-05-29T03:42:38;16.90;;;2.70;;
72590;SDS011;60625;51.212;5.952;2023-05-29T03:47:39;12.10;;;2.30;;
72590;SDS011;60625;51.212;5.952;2023-05-29T03:52:40;12.30;;;2.50;;
72590;SDS011;60625;51.212;5.952;2023-05-29T03:57:42;11.30;;;2.50;;
72590;SDS011;60625;51.212;5.952;2023-05-29T04:02:42;10.90;;;2.30;;
72590;SDS011;60625;51.212;5.952;2023-05-29T04:07:43;18.40;;;2.50;;
72590;SDS011;60625;51.212;5.952;2023-05-29T04:12:43;10.60;;;2.10;;
72590;SDS011;60625;51.212;5.952;2023-05-29T04:17:44;17.00;;;2.60;;
72590;SDS011;60625;51.212;5.952;2023-05-29T04:22:48;13.20;;;2.60;;
72590;SDS011;60625;51.212;5.952;2023-05-29T04:27:49;15.60;;;2.30;;
72590;SDS011;60625;51.212;5.952;2023-05-29T04:32:52;11.10;;;1.70;;
72590;SDS011;60625;51.212;5.952;2023-05-29T04:37:55;14.30;;;2.30;;
72590;SDS011;60625;51.212;5.952;2023-05-29T04:42:57;8.80;;;1.60;;
72590;SDS011;60625;51.212;5.952;2023-05-29T04:48:03;15.90;;;2.70;;
72590;SDS011;60625;51.212;5.952;2023-05-29T04:53:05;16.90;;;2.50;;
72590;SDS011;60625;51.212;5.952;2023-05-29T04:58:07;14.70;;;2.60;;
72590;SDS011;60625;51.212;5.952;2023-05-29T05:03:08;15.10;;;2.40;;
72590;SDS011;60625;51.212;5.952;2023-05-29T05:08:11;12.90;;;2.50;;
72590;SDS011;60625;51.212;5.952;2023-05-29T05:13:12;10.60;;;2.10;;
72590;SDS011;60625;51.212;5.952;2023-05-29T05:18:13;14.60;;;2.70;;
72590;SDS011;60625;51.212;5.952;2023-05-29T05:23:16;11.70;;;2.10;;
72590;SDS011;60625;51.212;5.952;2023-05-29T05:28:16;15.10;;;2.60;;
72590;SDS011;60625;51.212;5.952;2023-05-29T05:33:18;17.50;;;2.80;;
72590;SDS011;60625;51.212;5.952;2023-05-29T05:38:19;19.00;;;3.20;;
72590;SDS011;60625;51.212;5.952;2023-05-29T05:43:21;16.00;;;2.20;;
72590;SDS011;60625;51.212;5.952;2023-05-29T05:48:52;14.40;;;2.80;;
72590;SDS011;60625;51.212;5.952;2023-05-29T05:53:57;15.80;;;2.20;;
72590;SDS011;60625;51.212;5.952;2023-05-29T05:58:58;14.90;;;2.30;;
72590;SDS011;60625;51.212;5.952;2023-05-29T06:03:58;18.40;;;2.70;;
72590;SDS011;60625;51.212;5.952;2023-05-29T06:08:59;13.50;;;2.90;;
72590;SDS011;60625;51.212;5.952;2023-05-29T06:14:05;15.30;;;2.80;;
72590;SDS011;60625;51.212;5.952;2023-05-29T06:19:06;18.10;;;2.50;;
72590;SDS011;60625;51.212;5.952;2023-05-29T06:24:14;14.50;;;2.60;;
72590;SDS011;60625;51.212;5.952;2023-05-29T06:29:15;18.80;;;2.70;;
72590;SDS011;60625;51.212;5.952;2023-05-29T06:34:16;15.90;;;2.00;;
72590;SDS011;60625;51.212;5.952;2023-05-29T06:39:17;16.80;;;2.40;;
72590;SDS011;60625;51.212;5.952;2023-05-29T06:44:18;17.00;;;2.40;;
72590;SDS011;60625;51.212;5.952;2023-05-29T06:49:19;15.60;;;2.30;;
72590;SDS011;60625;51.212;5.952;2023-05-29T06:54:19;11.60;;;2.40;;
72590;SDS011;60625;51.212;5.952;2023-05-29T06:59:21;14.70;;;2.30;;
72590;SDS011;60625;51.212;5.952;2023-05-29T07:04:21;15.80;;;2.30;;
72590;SDS011;60625;51.212;5.952;2023-05-29T07:09:22;13.70;;;1.80;;
72590;SDS011;60625;51.212;5.952;2023-05-29T07:14:23;11.30;;;2.00;;
72590;SDS011;60625;51.212;5.952;2023-05-29T07:19:24;13.70;;;3.10;;
72590;SDS011;60625;51.212;5.952;2023-05-29T07:24:25;11.30;;;2.20;;
72590;SDS011;60625;51.212;5.952;2023-05-29T07:29:27;14.50;;;2.70;;
72590;SDS011;60625;51.212;5.952;2023-05-29T07:34:28;16.30;;;2.50;;
72590;SDS011;60625;51.212;5.952;2023-05-29T07:39:33;12.60;;;2.30;;
72590;SDS011;60625;51.212;5.952;2023-05-29T07:44:44;14.10;;;2.20;;
72590;SDS011;60625;51.212;5.952;2023-05-29T07:49:46;13.10;;;2.20;;
72590;SDS011;60625;51.212;5.952;2023-05-29T07:54:47;19.40;;;2.60;;
72590;SDS011;60625;51.212;5.952;2023-05-29T07:59:48;13.70;;;2.40;;
72590;SDS011;60625;51.212;5.952;2023-05-29T08:04:50;10.80;;;2.20;;
72590;SDS011;60625;51.212;5.952;2023-05-29T08:09:51;13.00;;;2.50;;
72590;SDS011;60625;51.212;5.952;2023-05-29T08:14:52;9.00;;;2.00;;
72590;SDS011;60625;51.212;5.952;2023-05-29T08:19:53;11.80;;;2.50;;
72590;SDS011;60625;51.212;5.952;2023-05-29T08:24:57;16.40;;;2.30;;
72590;SDS011;60625;51.212;5.952;2023-05-29T08:29:58;12.80;;;3.00;;
72590;SDS011;60625;51.212;5.952;2023-05-29T08:34:58;14.60;;;2.40;;
72590;SDS011;60625;51.212;5.952;2023-05-29T08:39:59;10.70;;;2.50;;
72590;SDS011;60625;51.212;5.952;2023-05-29T08:45:03;14.30;;;2.10;;
72590;SDS011;60625;51.212;5.952;2023-05-29T08:50:07;10.40;;;2.60;;
72590;SDS011;60625;51.212;5.952;2023-05-29T08:55:08;12.40;;;2.50;;
72590;SDS011;60625;51.212;5.952;2023-05-29T09:00:12;13.10;;;2.70;;
72590;SDS011;60625;51.212;5.952;2023-05-29T09:05:14;12.50;;;2.40;;
72590;SDS011;60625;51.212;5.952;2023-05-29T09:10:15;13.70;;;2.50;;
72590;SDS011;60625;51.212;5.952;2023-05-29T09:15:17;12.00;;;2.10;;
72590;SDS011;60625;51.212;5.952;2023-05-29T09:20:20;13.00;;;2.40;;
72590;SDS011;60625;51.212;5.952;2023-05-29T09:25:27;10.00;;;2.30;;
72590;SDS011;60625;51.212;5.952;2023-05-29T09:30:37;13.80;;;2.20;;
72590;SDS011;60625;51.212;5.952;2023-05-29T09:40:40;11.80;;;2.10;;
72590;SDS011;60625;51.212;5.952;2023-05-29T09:45:46;10.90;;;2.10;;
72590;SDS011;60625;51.212;5.952;2023-05-29T09:50:51;9.50;;;2.10;;
72590;SDS011;60625;51.212;5.952;2023-05-29T09:55:55;11.50;;;2.20;;
72590;SDS011;60625;51.212;5.952;2023-05-29T10:00:57;9.00;;;2.10;;
72590;SDS011;60625;51.212;5.952;2023-05-29T10:05:58;11.30;;;2.30;;
72590;SDS011;60625;51.212;5.952;2023-05-29T10:11:00;11.30;;;2.40;;
72590;SDS011;60625;51.212;5.952;2023-05-29T10:16:11;11.50;;;2.20;;
72590;SDS011;60625;51.212;5.952;2023-05-29T10:21:15;12.90;;;1.90;;
72590;SDS011;60625;51.212;5.952;2023-05-29T10:26:22;11.50;;;2.20;;
72590;SDS011;60625;51.212;5.952;2023-05-29T10:31:33;10.20;;;1.90;;
72590;SDS011;60625;51.212;5.952;2023-05-29T10:36:44;13.20;;;1.70;;
72590;SDS011;60625;51.212;5.952;2023-05-29T10:41:47;9.90;;;2.00;;
72590;SDS011;60625;51.212;5.952;2023-05-29T10:51:51;8.70;;;2.20;;
72590;SDS011;60625;51.212;5.952;2023-05-29T10:56:58;11.70;;;2.60;;
72590;SDS011;60625;51.212;5.952;2023-05-29T11:02:03;12.20;;;2.50;;
72590;SDS011;60625;51.212;5.952;2023-05-29T11:07:05;9.80;;;2.20;;
72590;SDS011;60625;51.212;5.952;2023-05-29T11:12:16;12.90;;;2.50;;
72590;SDS011;60625;51.212;5.952;2023-05-29T11:23:04;12.60;;;2.60;;
72590;SDS011;60625;51.212;5.952;2023-05-29T11:28:12;8.40;;;2.20;;
72590;SDS011;60625;51.212;5.952;2023-05-29T11:33:24;12.80;;;2.60;;
72590;SDS011;60625;51.212;5.952;2023-05-29T11:38:27;11.20;;;2.60;;
72590;SDS011;60625;51.212;5.952;2023-05-29T11:43:28;9.70;;;2.30;;
72590;SDS011;60625;51.212;5.952;2023-05-29T11:48:28;11.80;;;2.50;;
72590;SDS011;60625;51.212;5.952;2023-05-29T11:53:29;14.50;;;2.30;;
72590;SDS011;60625;51.212;5.952;2023-05-29T11:58:30;11.50;;;2.50;;
72590;SDS011;60625;51.212;5.952;2023-05-29T12:03:30;10.90;;;2.60;;
72590;SDS011;60625;51.212;5.952;2023-05-29T12:08:31;12.00;;;2.70;;
72590;SDS011;60625;51.212;5.952;2023-05-29T12:13:33;9.40;;;2.10;;
72590;SDS011;60625;51.212;5.952;2023-05-29T12:18:35;12.20;;;2.40;;
72590;SDS011;60625;51.212;5.952;2023-05-29T12:23:37;15.80;;;2.90;;
72590;SDS011;60625;51.212;5.952;2023-05-29T12:28:44;10.10;;;2.50;;
72590;SDS011;60625;51.212;5.952;2023-05-29T12:33:46;8.40;;;2.40;;
72590;SDS011;60625;51.212;5.952;2023-05-29T12:38:50;10.70;;;2.70;;
72590;SDS011;60625;51.212;5.952;2023-05-29T12:43:54;9.30;;;2.70;;
72590;SDS011;60625;51.212;5.952;2023-05-29T12:48:56;11.10;;;2.50;;
72590;SDS011;60625;51.212;5.952;2023-05-29T12:53:57;11.70;;;2.80;;
72590;SDS011;60625;51.212;5.952;2023-05-29T12:58:59;9.00;;;2.30;;
72590;SDS011;60625;51.212;5.952;2023-05-29T13:03:59;8.40;;;2.10;;
72590;SDS011;60625;51.212;5.952;2023-05-29T13:09:00;9.00;;;2.10;;
72590;SDS011;60625;51.212;5.952;2023-05-29T13:14:01;9.40;;;2.20;;
72590;SDS011;60625;51.212;5.952;2023-05-29T13:19:01;11.80;;;2.30;;
72590;SDS011;60625;51.212;5.952;2023-05-29T13:24:02;10.30;;;2.40;;
72590;SDS011;60625;51.212;5.952;2023-05-29T13:29:03;9.20;;;2.10;;
72590;SDS011;60625;51.212;5.952;2023-05-29T13:34:04;15.70;;;2.80;;
72590;SDS011;60625;51.212;5.952;2023-05-29T13:39:04;11.10;;;2.10;;
72590;SDS011;60625;51.212;5.952;2023-05-29T13:44:06;8.10;;;2.50;;
72590;SDS011;60625;51.212;5.952;2023-05-29T13:49:07;9.20;;;2.20;;
72590;SDS011;60625;51.212;5.952;2023-05-29T13:54:07;10.30;;;2.50;;
72590;SDS011;60625;51.212;5.952;2023-05-29T13:59:08;11.80;;;2.10;;
72590;SDS011;60625;51.212;5.952;2023-05-29T14:04:09;13.20;;;2.60;;
72590;SDS011;60625;51.212;5.952;2023-05-29T14:09:10;13.20;;;2.70;;
72590;SDS011;60625;51.212;5.952;2023-05-29T14:14:10;9.60;;;2.90;;
72590;SDS011;60625;51.212;5.952;2023-05-29T14:19:11;11.10;;;2.10;;
72590;SDS011;60625;51.212;5.952;2023-05-29T14:24:12;10.80;;;2.30;;
72590;SDS011;60625;51.212;5.952;2023-05-29T14:29:14;7.70;;;2.10;;
72590;SDS011;60625;51.212;5.952;2023-05-29T14:34:15;7.90;;;2.10;;
72590;SDS011;60625;51.212;5.952;2023-05-29T14:39:15;11.20;;;2.10;;
72590;SDS011;60625;51.212;5.952;2023-05-29T14:44:16;15.20;;;2.40;;
72590;SDS011;60625;51.212;5.952;2023-05-29T14:49:19;10.30;;;2.20;;
72590;SDS011;60625;51.212;5.952;2023-05-29T14:54:21;10.00;;;2.50;;
72590;SDS011;60625;51.212;5.952;2023-05-29T14:59:22;9.70;;;2.80;;
72590;SDS011;60625;51.212;5.952;2023-05-29T15:04:24;8.80;;;2.30;;
72590;SDS011;60625;51.212;5.952;2023-05-29T15:09:24;10.30;;;2.50;;
72590;SDS011;60625;51.212;5.952;2023-05-29T15:14:25;10.10;;;2.70;;
72590;SDS011;60625;51.212;5.952;2023-05-29T15:19:26;14.90;;;2.30;;
72590;SDS011;60625;51.212;5.952;2023-05-29T15:24:27;9.70;;;2.90;;
72590;SDS011;60625;51.212;5.952;2023-05-29T15:29:35;9.70;;;2.60;;
72590;SDS011;60625;51.212;5.952;2023-05-29T15:34:39;11.60;;;2.90;;
72590;SDS011;60625;51.212;5.952;2023-05-29T15:39:40;10.50;;;1.90;;
72590;SDS011;60625;51.212;5.952;2023-05-29T15:44:41;10.10;;;2.20;;
72590;SDS011;60625;51.212;5.952;2023-05-29T15:49:41;9.40;;;2.20;;
72590;SDS011;60625;51.212;5.952;2023-05-29T15:54:42;8.50;;;2.20;;
72590;SDS011;60625;51.212;5.952;2023-05-29T15:59:43;8.80;;;1.80;;
72590;SDS011;60625;51.212;5.952;2023-05-29T16:04:43;13.30;;;2.40;;
72590;SDS011;60625;51.212;5.952;2023-05-29T16:09:44;10.70;;;2.40;;
72590;SDS011;60625;51.212;5.952;2023-05-29T16:14:44;9.50;;;2.30;;
72590;SDS011;60625;51.212;5.952;2023-05-29T16:19:45;6.90;;;2.00;;
72590;SDS011;60625;51.212;5.952;2023-05-29T16:24:45;11.70;;;2.10;;
72590;SDS011;60625;51.212;5.952;2023-05-29T16:29:46;10.80;;;2.40;;
72590;SDS011;60625;51.212;5.952;2023-05-29T16:34:47;13.00;;;2.60;;
72590;SDS011;60625;51.212;5.952;2023-05-29T16:39:47;9.70;;;2.40;;
72590;SDS011;60625;51.212;5.952;2023-05-29T16:44:48;12.30;;;2.30;;
72590;SDS011;60625;51.212;5.952;2023-05-29T16:49:49;10.50;;;1.80;;
72590;SDS011;60625;51.212;5.952;2023-05-29T16:54:50;13.70;;;2.60;;
72590;SDS011;60625;51.212;5.952;2023-05-29T16:59:51;10.00;;;2.30;;
72590;SDS011;60625;51.212;5.952;2023-05-29T17:04:51;10.10;;;2.30;;
72590;SDS011;60625;51.212;5.952;2023-05-29T17:09:52;11.60;;;3.20;;
72590;SDS011;60625;51.212;5.952;2023-05-29T17:14:52;10.10;;;2.50;;
72590;SDS011;60625;51.212;5.952;2023-05-29T17:19:53;7.60;;;2.10;;
72590;SDS011;60625;51.212;5.952;2023-05-29T17:24:54;8.70;;;2.40;;
72590;SDS011;60625;51.212;5.952;2023-05-29T17:29:55;10.60;;;2.40;;
72590;SDS011;60625;51.212;5.952;2023-05-29T17:34:55;10.00;;;2.20;;
72590;SDS011;60625;51.212;5.952;2023-05-29T17:39:56;11.10;;;2.10;;
72590;SDS011;60625;51.212;5.952;2023-05-29T17:44:57;11.10;;;2.30;;
72590;SDS011;60625;51.212;5.952;2023-05-29T17:49:59;9.30;;;2.40;;
72590;SDS011;60625;51.212;5.952;2023-05-29T17:54:59;9.50;;;2.20;;
72590;SDS011;60625;51.212;5.952;2023-05-29T18:00:01;14.10;;;2.60;;
72590;SDS011;60625;51.212;5.952;2023-05-29T18:05:12;15.40;;;2.40;;
72590;SDS011;60625;51.212;5.952;2023-05-29T18:10:13;10.70;;;2.10;;
72590;SDS011;60625;51.212;5.952;2023-05-29T18:15:21;10.00;;;1.90;;
72590;SDS011;60625;51.212;5.952;2023-05-29T18:20:21;10.60;;;2.40;;
72590;SDS011;60625;51.212;5.952;2023-05-29T18:25:28;11.20;;;2.10;;
72590;SDS011;60625;51.212;5.952;2023-05-29T18:30:29;14.30;;;2.30;;
72590;SDS011;60625;51.212;5.952;2023-05-29T18:35:30;11.90;;;2.30;;
72590;SDS011;60625;51.212;5.952;2023-05-29T18:40:30;9.90;;;1.90;;
72590;SDS011;60625;51.212;5.952;2023-05-29T18:45:31;8.60;;;2.10;;
72590;SDS011;60625;51.212;5.952;2023-05-29T18:50:31;9.90;;;2.20;;
72590;SDS011;60625;51.212;5.952;2023-05-29T18:55:32;8.10;;;1.80;;
72590;SDS011;60625;51.212;5.952;2023-05-29T19:00:33;9.30;;;1.60;;
72590;SDS011;60625;51.212;5.952;2023-05-29T19:05:35;7.90;;;1.80;;
72590;SDS011;60625;51.212;5.952;2023-05-29T19:10:36;10.10;;;1.80;;
72590;SDS011;60625;51.212;5.952;2023-05-29T19:15:42;7.00;;;1.80;;
72590;SDS011;60625;51.212;5.952;2023-05-29T19:20:43;11.20;;;2.00;;
72590;SDS011;60625;51.212;5.952;2023-05-29T19:25:44;12.40;;;2.00;;
72590;SDS011;60625;51.212;5.952;2023-05-29T19:30:44;9.00;;;1.80;;
72590;SDS011;60625;51.212;5.952;2023-05-29T19:35:46;8.60;;;1.80;;
72590;SDS011;60625;51.212;5.952;2023-05-29T19:40:47;12.90;;;2.10;;
72590;SDS011;60625;51.212;5.952;2023-05-29T19:45:47;7.60;;;1.80;;
72590;SDS011;60625;51.212;5.952;2023-05-29T19:50:48;11.00;;;1.90;;
72590;SDS011;60625;51.212;5.952;2023-05-29T19:55:48;9.20;;;1.70;;
72590;SDS011;60625;51.212;5.952;2023-05-29T20:00:49;8.80;;;1.50;;
72590;SDS011;60625;51.212;5.952;2023-05-29T20:05:50;11.90;;;2.00;;
72590;SDS011;60625;51.212;5.952;2023-05-29T20:10:52;11.20;;;1.40;;
72590;SDS011;60625;51.212;5.952;2023-05-29T20:15:52;9.00;;;1.60;;
72590;SDS011;60625;51.212;5.952;2023-05-29T20:20:53;11.30;;;1.60;;
72590;SDS011;60625;51.212;5.952;2023-05-29T20:25:53;8.80;;;1.90;;
72590;SDS011;60625;51.212;5.952;2023-05-29T20:30:55;10.10;;;1.80;;
72590;SDS011;60625;51.212;5.952;2023-05-29T20:35:55;12.80;;;1.90;;
72590;SDS011;60625;51.212;5.952;2023-05-29T20:40:58;9.80;;;1.50;;
72590;SDS011;60625;51.212;5.952;2023-05-29T20:45:59;13.20;;;1.90;;
72590;SDS011;60625;51.212;5.952;2023-05-29T20:51:01;11.00;;;1.50;;
72590;SDS011;60625;51.212;5.952;2023-05-29T20:56:03;6.50;;;1.40;;
72590;SDS011;60625;51.212;5.952;2023-05-29T21:01:04;10.90;;;1.50;;
72590;SDS011;60625;51.212;5.952;2023-05-29T21:06:05;10.40;;;1.50;;
72590;SDS011;60625;51.212;5.952;2023-05-29T21:11:06;7.40;;;1.30;;
72590;SDS011;60625;51.212;5.952;2023-05-29T21:16:07;8.10;;;1.30;;
72590;SDS011;60625;51.212;5.952;2023-05-29T21:21:07;10.40;;;1.80;;
72590;SDS011;60625;51.212;5.952;2023-05-29T21:26:08;11.70;;;1.80;;
72590;SDS011;60625;51.212;5.952;2023-05-29T21:31:09;10.10;;;1.40;;
72590;SDS011;60625;51.212;5.952;2023-05-29T21:36:10;9.20;;;1.70;;
72590;SDS011;60625;51.212;5.952;2023-05-29T21:41:11;7.00;;;1.40;;
72590;SDS011;60625;51.212;5.952;2023-05-29T21:46:11;9.80;;;1.50;;
72590;SDS011;60625;51.212;5.952;2023-05-29T21:51:12;10.90;;;1.20;;
72590;SDS011;60625;51.212;5.952;2023-05-29T21:56:13;10.10;;;1.50;;
72590;SDS011;60625;51.212;5.952;2023-05-29T22:01:14;7.00;;;1.60;;
72590;SDS011;60625;51.212;5.952;2023-05-29T22:06:15;6.10;;;1.20;;
72590;SDS011;60625;51.212;5.952;2023-05-29T22:11:17;8.10;;;1.50;;
72590;SDS011;60625;51.212;5.952;2023-05-29T22:16:18;7.60;;;1.40;;
72590;SDS011;60625;51.212;5.952;2023-05-29T22:21:19;8.90;;;1.40;;
72590;SDS011;60625;51.212;5.952;2023-05-29T22:26:21;13.80;;;2.20;;
72590;SDS011;60625;51.212;5.952;2023-05-29T22:31:23;9.20;;;1.60;;
72590;SDS011;60625;51.212;5.952;2023-05-29T22:36:23;12.50;;;1.50;;
72590;SDS011;60625;51.212;5.952;2023-05-29T22:41:24;9.50;;;1.30;;
72590;SDS011;60625;51.212;5.952;2023-05-29T22:46:24;11.60;;;2.10;;
72590;SDS011;60625;51.212;5.952;2023-05-29T22:51:26;9.10;;;1.20;;
72590;SDS011;60625;51.212;5.952;2023-05-29T22:56:26;12.40;;;1.60;;
72590;SDS011;60625;51.212;5.952;2023-05-29T23:01:27;8.30;;;1.30;;
72590;SDS011;60625;51.212;5.952;2023-05-29T23:06:28;10.70;;;1.60;;
72590;SDS011;60625;51.212;5.952;2023-05-29T23:11:33;8.20;;;1.20;;
72590;SDS011;60625;51.212;5.952;2023-05-29T23:16:34;13.20;;;2.00;;
72590;SDS011;60625;51.212;5.952;2023-05-29T23:21:34;10.10;;;1.90;;
72590;SDS011;60625;51.212;5.952;2023-05-29T23:26:35;6.70;;;1.40;;
72590;SDS011;60625;51.212;5.952;2023-05-29T23:31:36;12.10;;;2.10;;
72590;SDS011;60625;51.212;5.952;2023-05-29T23:36:36;9.60;;;1.60;;
72590;SDS011;60625;51.212;5.952;2023-05-29T23:41:40;9.70;;;1.30;;
72590;SDS011;60625;51.212;5.952;2023-05-29T23:46:41;10.90;;;1.90;;
72590;SDS011;60625;51.212;5.952;2023-05-29T23:51:42;9.70;;;2.00;;
72590;SDS011;60625;51.212;5.952;2023-05-29T23:56:42;14.60;;;1.70;;
